Ann Arbor, MI

5:14 PM EST on December 28, 2014 (GMT -0500)
Detroit Metro Wayne County | Change Station
CLOSE
Current Station
Airport
Location: Detroit Metro,
Elevation: 663 ft
Nearby Weather Stations

Elev 663 ft 42.23 °N, 83.33 °W | Updated 21 minutes ago

Partly Cloudy
Partly Cloudy
34 °F
Feels Like 30 °F
N
5
Wind Variable Wind from WSW

Today
High -- | Low -- °F
--% Chance of Precip.
Yesterday
High -- | Low -- °F
Precip. -- in
8:03 AM 5:10 PM
First Quarter, 52% visible
Pressure 30.15 in
Visibility 10.0 miles
Clouds Few 2600 ft
Scattered Clouds 13000 ft
Mostly Cloudy 24000 ft
Windchill 30 °F
Dew Point 22 °F
Humidity 61%
Rainfall 0.00 in
Snow Depth Not available.
UV 0 out of 12
Pollen .10 out of 12
Air Quality Not available.
Flu Activity Not available.
METAR KDTW 282153Z 24004KT 10SM FEW026 SCT130 BKN240 01/M06 A3013 RMK AO2 SLP209 T00111056 $

More Conditions Fewer Conditions

Pressure 30.15 in
Visibility 10.0 miles
Clouds Few 2600 ft
Scattered Clouds 13000 ft
Mostly Cloudy 24000 ft
Windchill 30 °F
Dew Point 22 °F
Humidity 61%
Rainfall 0.00 in
Snow Depth Not available.
UV 0 out of 12
Pollen .10 out of 12
Air Quality Not available.
Flu Activity Not available.
METAR KDTW 282153Z 24004KT 10SM FEW026 SCT130 BKN240 01/M06 A3013 RMK AO2 SLP209 T00111056 $

More Conditions Fewer Conditions

10-Day Weather Forecast

Almanac

Astronomy

Dec. 28, 2014 Rise Set
Actual Time
Civil Twilight
Nautical Twilight
Astronomical Twilight
Moon
Length of Visible Light
Length of Day
Tomorrow will be .
, % of the Moon is Illuminated

Today's Extremes

State Highs State Lows

Community

WunderPhotos

Upload Photos

1,781,444 photos uploaded!

WunderBlogs® & News

Nearby

Air Quality

  Air Quality AQ Index Pollutant
Not available.

Snow Depth

Station Depth Elevation

Earthquake Activity

City Distance Mag. Time & Date
Minimum magnitude displayed is 2.5.

Coastal Water Temperatures

Place Temperature

Nearby Weather Stations